logo tempoitalia

Diretta Meteo Arar, Arabia Sauditalunedì 31 agosto ore 08:00

Mappa
Sereno 27 °C Sereno 24 Ore: T.min 25 T.max 37
Ponente Nord/NOvest Km/h 13 Punto di rugiada: 10 °C Umidità: 34% Visibilità: 10 Km
Il sole sorge alle: 05:51 Il sole tramonta alle: 18:40
31 Agosto 2026 08:00 tempo osservato: Sereno Sereno 27 34 1011 vento: Nord N/NO 13
31 Agosto 2026 07:00 tempo osservato: Sereno Sereno 26 36 1010 vento: Nord N/NO 9.3
31 Agosto 2026 06:00 tempo osservato: Sereno Sereno 25 36 1010 vento: Nord N/NO 11.1
31 Agosto 2026 05:00 tempo osservato: Sereno Sereno 26 34 1010 vento: Nord N 9.3
31 Agosto 2026 04:00 tempo osservato: Sereno Sereno 27 32 1009 vento: Nord N/NO 20.3
31 Agosto 2026 03:00 tempo osservato: Sereno Sereno 28 30 1009 vento: Nord N/NO 16.7
31 Agosto 2026 02:00 tempo osservato: Sereno Sereno 28 26 1009 vento: Nord N/NO 11.1
31 Agosto 2026 01:00 tempo osservato: Sereno Sereno 29 25 1009 vento: Nord N/NO 11.1
31 Agosto 2026 00:00 tempo osservato: Sereno Sereno 29 25 1009 vento: Nord N 13
30 Agosto 2026 23:00 tempo osservato: Sereno Sereno 29 25 1008 vento: Nord N 9.3
30 Agosto 2026 22:00 tempo osservato: Sereno Sereno 30 22 1008 vento: Nord N 9.3
30 Agosto 2026 21:00 tempo osservato: Sereno Sereno 31 19 1008 vento: Nord N/NO 7.4
30 Agosto 2026 20:00 tempo osservato: Sereno Sereno 32 18 1008 vento: Nord O/NO 13
30 Agosto 2026 19:00 tempo osservato: Sereno Sereno 33 18 1007 vento: Nord O 22.2
30 Agosto 2026 18:00 tempo osservato: Sereno Sereno 35 14 1007 vento: Nord O 20.3
30 Agosto 2026 17:00 tempo osservato: Sereno Sereno 35 15 1007 vento: Nord O 22.2
30 Agosto 2026 16:00 tempo osservato: Sereno Sereno 36 15 1006 vento: Nord O 24
30 Agosto 2026 15:00 tempo osservato: Sereno Sereno 37 15 1006 vento: Nord O/NO 16.7
30 Agosto 2026 14:00 tempo osservato: Sereno Sereno 35 19 1007 vento: Nord O 29.6
30 Agosto 2026 13:00 tempo osservato: Sereno Sereno 35 21 1007 vento: Nord NO 16.7
30 Agosto 2026 12:00 tempo osservato: Sereno Sereno 34 23 1008 vento: Nord O/NO 20.3
30 Agosto 2026 11:00 tempo osservato: Sereno Sereno 33 24 1008 vento: Nord O/NO 25.9
30 Agosto 2026 10:00 tempo osservato: Sereno Sereno 31 29 1008 vento: Nord NO 22.2
30 Agosto 2026 09:00 tempo osservato: Sereno Sereno 29 32 1008 vento: Nord NO 25.9